createdAt,value
2019-04-20T00:00:50.761Z,7.50
2019-04-20T00:03:17.948Z,7.50
2019-04-20T00:05:47.157Z,7.50
2019-04-20T00:08:21.539Z,7.50
2019-04-20T00:10:55.130Z,7.40
2019-04-20T00:13:29.040Z,7.30
2019-04-20T00:15:49.152Z,7.30
2019-04-20T00:18:19.198Z,7.30
2019-04-20T00:20:59.300Z,7.20
2019-04-20T00:23:38.384Z,7.10
2019-04-20T00:26:32.212Z,7.00
2019-04-20T00:29:10.211Z,6.90
2019-04-20T00:31:39.174Z,7.00
2019-04-20T00:34:02.706Z,6.90
2019-04-20T00:36:24.298Z,6.70
2019-04-20T00:38:56.916Z,6.70
2019-04-20T00:41:24.670Z,7.00
2019-04-20T00:43:58.879Z,7.10
2019-04-20T00:46:32.948Z,7.00
2019-04-20T00:49:06.839Z,6.80
2019-04-20T00:51:45.545Z,6.70
2019-04-20T00:53:58.732Z,6.70
2019-04-20T00:56:28.750Z,6.60
2019-04-20T00:59:08.339Z,6.60
2019-04-20T01:01:50.162Z,6.50
2019-04-20T01:07:01.575Z,6.50
2019-04-20T01:09:26.422Z,6.40
2019-04-20T01:11:56.614Z,6.30
2019-04-20T01:14:36.415Z,6.30
2019-04-20T01:17:02.100Z,6.30
2019-04-20T01:19:26.866Z,6.30
2019-04-20T01:22:02.332Z,6.20
2019-04-20T01:24:32.859Z,6.20
2019-04-20T01:27:00.830Z,6.20
2019-04-20T01:29:36.916Z,6.20
2019-04-20T01:32:10.562Z,6.20
2019-04-20T01:34:41.619Z,6.30
2019-04-20T01:37:14.822Z,6.30
2019-04-20T01:39:37.092Z,6.30
2019-04-20T01:42:00.701Z,6.20
2019-04-20T01:44:35.919Z,6.20
2019-04-20T01:47:04.546Z,6.20
2019-04-20T01:49:38.438Z,6.20
2019-04-20T01:52:16.409Z,6.20
2019-04-20T01:54:56.430Z,6.10
2019-04-20T01:57:33.000Z,6.00
2019-04-20T02:00:11.482Z,5.90
2019-04-20T02:02:50.357Z,5.80
2019-04-20T02:05:22.886Z,5.70
2019-04-20T02:07:55.460Z,5.70
2019-04-20T02:10:47.090Z,5.70
2019-04-20T02:13:13.768Z,5.70
2019-04-20T02:15:48.602Z,5.60
2019-04-20T02:18:31.849Z,5.70
2019-04-20T02:21:12.194Z,5.70
2019-04-20T02:23:31.162Z,5.70
2019-04-20T02:25:52.234Z,5.70
2019-04-20T02:28:38.544Z,5.60
2019-04-20T02:33:58.223Z,5.50
2019-04-20T02:36:42.923Z,5.40
2019-04-20T02:39:21.523Z,5.40
2019-04-20T02:44:15.934Z,5.50
2019-04-20T02:46:40.784Z,5.60
2019-04-20T02:49:26.183Z,5.70
2019-04-20T02:51:59.749Z,5.70
2019-04-20T02:56:47.635Z,5.40
2019-04-20T03:01:36.470Z,5.20
2019-04-20T03:03:51.028Z,5.10
2019-04-20T03:06:26.325Z,5.10
2019-04-20T03:09:09.125Z,5.00
2019-04-20T03:11:50.012Z,4.90
2019-04-20T03:14:05.108Z,4.90
2019-04-20T03:16:35.686Z,4.90
2019-04-20T03:19:03.063Z,4.90
2019-04-20T03:21:45.461Z,4.80
2019-04-20T03:24:23.789Z,4.80
2019-04-20T03:26:40.318Z,4.80
2019-04-20T03:29:18.883Z,4.70
2019-04-20T03:37:13.397Z,4.70
2019-04-20T03:39:31.311Z,4.70
2019-04-20T03:41:52.037Z,4.90
2019-04-20T03:44:23.939Z,4.90
2019-04-20T03:46:57.229Z,4.70
2019-04-20T03:49:42.485Z,4.60
2019-04-20T03:52:23.337Z,4.50
2019-04-20T03:54:54.226Z,4.60
2019-04-20T03:57:51.311Z,4.60
2019-04-20T04:00:36.500Z,4.50
2019-04-20T04:03:20.214Z,4.50
2019-04-20T04:05:58.856Z,4.50
2019-04-20T04:08:24.776Z,4.50
2019-04-20T04:11:06.516Z,4.60
2019-04-20T04:13:20.931Z,4.60
2019-04-20T04:15:55.610Z,4.70
2019-04-20T04:18:28.718Z,4.60
2019-04-20T04:21:01.472Z,4.60
2019-04-20T04:23:40.648Z,4.60
2019-04-20T04:26:08.631Z,4.70
2019-04-20T04:28:54.773Z,4.80
2019-04-20T04:31:14.627Z,4.90
2019-04-20T04:33:58.090Z,4.80
2019-04-20T04:36:10.107Z,4.80
2019-04-20T04:38:53.339Z,4.90
2019-04-20T04:41:18.294Z,4.90
2019-04-20T04:43:44.359Z,4.90
2019-04-20T04:45:57.644Z,5.00
2019-04-20T04:48:32.096Z,5.00
2019-04-20T04:51:03.162Z,5.10
2019-04-20T04:53:41.959Z,5.30
2019-04-20T04:56:06.743Z,5.40
2019-04-20T04:58:29.849Z,5.40
2019-04-20T05:01:06.582Z,5.40
2019-04-20T05:03:47.132Z,5.40
2019-04-20T05:06:20.462Z,5.40
2019-04-20T05:08:38.693Z,5.50
2019-04-20T05:11:04.721Z,5.60
2019-04-20T05:13:41.864Z,5.80
2019-04-20T05:16:21.711Z,5.90
2019-04-20T05:18:57.918Z,6.00
2019-04-20T05:21:25.442Z,6.10
2019-04-20T05:23:53.630Z,6.20
2019-04-20T05:26:37.547Z,6.30
2019-04-20T05:28:55.594Z,6.40
2019-04-20T05:31:18.510Z,6.50
2019-04-20T05:34:02.318Z,6.50
2019-04-20T05:36:37.236Z,6.60
2019-04-20T05:39:14.432Z,6.80
2019-04-20T05:41:38.862Z,7.00
2019-04-20T05:44:09.919Z,7.10
2019-04-20T05:46:41.177Z,7.30
2019-04-20T05:49:20.659Z,7.50
2019-04-20T05:51:44.629Z,7.50
2019-04-20T05:54:15.439Z,7.60
2019-04-20T05:56:47.802Z,7.80
2019-04-20T05:59:11.674Z,8.00
2019-04-20T06:01:53.931Z,8.10
2019-04-20T06:04:17.355Z,8.30
2019-04-20T06:06:53.539Z,8.50
2019-04-20T06:09:23.037Z,8.70
2019-04-20T06:12:02.956Z,8.80
2019-04-20T06:14:28.585Z,9.00
2019-04-20T06:17:16.082Z,9.20
2019-04-20T06:19:42.259Z,10.10
2019-04-20T06:22:21.445Z,12.90
2019-04-20T06:25:17.088Z,15.90
2019-04-20T06:27:35.287Z,18.80
2019-04-20T06:30:03.979Z,20.10
2019-04-20T06:33:21.565Z,20.70
2019-04-20T06:36:06.021Z,21.80
2019-04-20T06:38:30.625Z,22.70
2019-04-20T06:40:54.158Z,22.90
2019-04-20T06:43:12.496Z,23.50
2019-04-20T06:45:55.134Z,24.60
2019-04-20T06:48:21.723Z,25.40
2019-04-20T06:50:44.759Z,25.50
2019-04-20T06:53:41.600Z,25.20
2019-04-20T06:56:05.513Z,25.30
2019-04-20T07:01:07.670Z,26.20
2019-04-20T07:06:20.932Z,26.20
2019-04-20T07:08:50.080Z,26.50
2019-04-20T07:11:16.540Z,26.80
2019-04-20T07:13:28.894Z,27.10
2019-04-20T07:16:13.715Z,27.20
2019-04-20T07:19:01.020Z,27.00
2019-04-20T07:21:47.480Z,26.60
2019-04-20T07:24:03.576Z,26.20
2019-04-20T07:26:38.636Z,26.40
2019-04-20T07:29:06.831Z,26.60
2019-04-20T07:31:35.239Z,27.00
2019-04-20T07:34:05.022Z,27.30
2019-04-20T07:36:40.424Z,27.80
2019-04-20T07:39:07.877Z,27.90
2019-04-20T07:41:47.856Z,28.30
2019-04-20T07:44:10.695Z,28.80
2019-04-20T07:46:47.056Z,28.50
2019-04-20T07:49:07.657Z,28.60
2019-04-20T07:51:24.849Z,29.10
2019-04-20T07:54:19.342Z,29.80
2019-04-20T07:56:46.309Z,30.20
2019-04-20T07:58:57.099Z,30.20
2019-04-20T08:01:53.048Z,30.40
2019-04-20T08:04:32.347Z,31.30
2019-04-20T08:06:53.196Z,32.30
2019-04-20T08:09:26.077Z,32.40
2019-04-20T08:12:14.280Z,33.20
2019-04-20T08:14:56.752Z,33.20
2019-04-20T08:19:42.391Z,31.90
2019-04-20T08:22:15.187Z,31.00
2019-04-20T08:24:37.376Z,31.00
2019-04-20T08:26:58.973Z,30.90
2019-04-20T08:29:46.894Z,30.80
2019-04-20T08:32:31.303Z,30.20
2019-04-20T08:35:05.622Z,28.90
2019-04-20T08:37:26.575Z,29.30
2019-04-20T08:42:37.982Z,29.50
2019-04-20T08:45:04.065Z,29.80
2019-04-20T08:47:44.269Z,30.10
2019-04-20T08:50:16.458Z,30.70
2019-04-20T08:53:06.507Z,29.90
2019-04-20T08:55:10.496Z,29.80
2019-04-20T08:57:25.061Z,30.40
2019-04-20T08:59:54.385Z,31.00
2019-04-20T09:02:23.926Z,31.60
2019-04-20T09:05:01.045Z,30.60
2019-04-20T09:07:28.505Z,31.00
2019-04-20T09:10:16.364Z,30.80
2019-04-20T09:12:40.938Z,30.50
2019-04-20T09:14:55.297Z,29.70
2019-04-20T09:17:39.699Z,29.60
2019-04-20T09:20:09.903Z,29.70
2019-04-20T09:23:02.281Z,30.20
2019-04-20T09:25:48.690Z,31.00
2019-04-20T09:28:18.909Z,31.00
2019-04-20T09:30:50.522Z,30.50
2019-04-20T09:33:41.766Z,28.80
2019-04-20T09:36:14.310Z,29.80
2019-04-20T09:39:01.075Z,29.70
2019-04-20T09:41:39.515Z,30.60
2019-04-20T09:43:51.141Z,30.50
2019-04-20T09:46:22.161Z,28.80
2019-04-20T09:48:57.050Z,28.70
2019-04-20T09:51:40.214Z,29.20
2019-04-20T09:54:04.060Z,29.50
2019-04-20T09:56:37.188Z,28.60
2019-04-20T09:59:13.793Z,29.20
2019-04-20T10:01:34.039Z,28.80
2019-04-20T10:03:54.758Z,28.40
2019-04-20T10:06:27.281Z,29.20
2019-04-20T10:08:58.310Z,30.10
2019-04-20T10:11:25.494Z,30.90
2019-04-20T10:13:54.488Z,30.70
2019-04-20T10:16:23.842Z,30.20
2019-04-20T10:18:54.984Z,28.90
2019-04-20T10:21:23.599Z,27.20
2019-04-20T10:23:52.735Z,25.70
2019-04-20T10:26:22.734Z,23.60
2019-04-20T10:28:51.869Z,22.20
2019-04-20T10:31:22.280Z,21.40
2019-04-20T10:33:51.471Z,20.70
2019-04-20T10:36:39.559Z,20.80
2019-04-20T10:39:10.883Z,20.60
2019-04-20T10:45:21.415Z,21.00
2019-04-20T10:47:50.731Z,20.80
2019-04-20T10:50:20.909Z,20.80
2019-04-20T10:52:50.015Z,20.90
2019-04-20T10:55:18.877Z,20.70
2019-04-20T10:57:47.735Z,20.60
2019-04-20T11:00:17.601Z,20.70
2019-04-20T11:02:48.059Z,20.70
2019-04-20T11:05:17.024Z,20.70
2019-04-20T11:07:46.336Z,20.50
2019-04-20T11:10:21.634Z,20.60
2019-04-20T11:12:46.448Z,20.60
2019-04-20T11:15:16.503Z,20.50
2019-04-20T11:17:45.746Z,20.40
2019-04-20T11:20:15.144Z,20.40
2019-04-20T11:22:44.389Z,20.30
2019-04-20T11:25:14.384Z,20.30
2019-04-20T11:27:43.920Z,20.40
2019-04-20T11:30:14.114Z,20.50
2019-04-20T11:32:44.318Z,20.70
2019-04-20T11:35:22.966Z,20.40
2019-04-20T11:37:44.900Z,20.20
2019-04-20T11:40:15.001Z,20.00
2019-04-20T11:42:43.991Z,19.80
2019-04-20T11:45:13.278Z,19.80
2019-04-20T11:47:43.263Z,19.70
2019-04-20T11:50:13.707Z,19.80
2019-04-20T11:52:47.539Z,19.70
2019-04-20T11:55:13.646Z,19.70
2019-04-20T11:57:43.133Z,19.80
2019-04-20T12:00:15.084Z,19.60
2019-04-20T12:02:47.787Z,19.60
2019-04-20T12:05:28.414Z,19.50
2019-04-20T12:07:55.428Z,19.60
2019-04-20T12:10:26.463Z,19.60
2019-04-20T12:12:55.756Z,19.60
2019-04-20T12:15:24.911Z,19.50
2019-04-20T12:17:53.776Z,19.40
2019-04-20T12:20:22.841Z,19.40
2019-04-20T12:22:52.603Z,19.40
2019-04-20T12:25:21.668Z,19.50
2019-04-20T12:27:55.094Z,19.40
2019-04-20T12:30:21.789Z,19.30
2019-04-20T12:32:55.117Z,19.40
2019-04-20T12:35:22.350Z,19.50
2019-04-20T12:37:51.419Z,19.40
2019-04-20T12:40:21.860Z,19.30
2019-04-20T12:42:50.958Z,19.20
2019-04-20T12:45:22.082Z,19.10
2019-04-20T12:47:51.572Z,19.00
2019-04-20T12:50:21.497Z,19.00
2019-04-20T12:52:50.518Z,19.20
2019-04-20T12:55:20.799Z,19.30
2019-04-20T12:57:50.290Z,19.40
2019-04-20T13:00:21.670Z,19.40
2019-04-20T13:02:51.550Z,19.40
2019-04-20T13:05:22.111Z,19.40
2019-04-20T13:07:56.036Z,19.30
2019-04-20T13:10:23.192Z,19.30
2019-04-20T13:13:03.014Z,19.20
2019-04-20T13:15:46.652Z,19.20
2019-04-20T13:18:21.247Z,19.40
2019-04-20T13:20:53.075Z,19.40
2019-04-20T13:23:20.786Z,19.40
2019-04-20T13:25:50.745Z,19.40
2019-04-20T13:28:21.069Z,19.40
2019-04-20T13:30:50.201Z,19.50
2019-04-20T13:33:19.770Z,19.50
2019-04-20T13:35:50.110Z,19.40
2019-04-20T13:38:20.244Z,19.30
2019-04-20T13:40:49.314Z,19.10
2019-04-20T13:43:19.450Z,19.10
2019-04-20T13:45:48.976Z,19.20
2019-04-20T13:48:19.258Z,19.30
2019-04-20T13:50:49.659Z,19.40
2019-04-20T13:53:19.219Z,19.50
2019-04-20T13:55:48.294Z,19.40
2019-04-20T13:58:36.451Z,19.30
2019-04-20T14:01:07.419Z,19.10
2019-04-20T14:03:38.740Z,19.00
2019-04-20T14:06:08.870Z,19.10
2019-04-20T14:08:39.196Z,19.20
2019-04-20T14:11:09.372Z,19.20
2019-04-20T14:13:45.120Z,19.20
2019-04-20T14:16:09.214Z,19.20
2019-04-20T14:18:38.106Z,19.20
2019-04-20T14:21:08.017Z,19.20
2019-04-20T14:23:37.090Z,19.20
2019-04-20T14:26:07.047Z,19.10
2019-04-20T14:28:36.756Z,19.00
2019-04-20T14:31:05.884Z,19.10
2019-04-20T14:33:34.918Z,19.00
2019-04-20T14:36:05.076Z,18.90
2019-04-20T14:38:34.279Z,18.90
2019-04-20T14:41:04.329Z,19.00
2019-04-20T14:43:34.672Z,19.00
2019-04-20T14:46:04.998Z,19.00
2019-04-20T14:48:34.463Z,19.00
2019-04-20T14:51:03.630Z,19.00
2019-04-20T14:53:33.610Z,19.00
2019-04-20T14:56:02.618Z,19.00
2019-04-20T14:58:41.429Z,19.00
2019-04-20T15:01:30.317Z,18.90
2019-04-20T15:04:06.945Z,18.90
2019-04-20T15:06:36.672Z,18.90
2019-04-20T15:09:06.486Z,19.00
2019-04-20T15:11:38.148Z,19.00
2019-04-20T15:14:06.879Z,19.10
2019-04-20T15:16:36.020Z,19.10
2019-04-20T15:19:07.549Z,19.20
2019-04-20T15:21:38.200Z,19.20
2019-04-20T15:24:07.071Z,19.10
2019-04-20T15:26:36.266Z,19.00
2019-04-20T15:29:06.376Z,18.80
2019-04-20T15:31:36.412Z,18.70
2019-04-20T15:34:06.825Z,18.60
2019-04-20T15:36:37.824Z,18.50
2019-04-20T15:39:07.745Z,18.50
2019-04-20T15:41:36.612Z,18.50
2019-04-20T15:47:36.122Z,18.80
2019-04-20T15:50:07.852Z,18.90
2019-04-20T15:52:42.518Z,18.90
2019-04-20T15:55:15.422Z,18.90
2019-04-20T15:57:40.745Z,18.80
2019-04-20T16:00:10.901Z,18.60
2019-04-20T16:02:43.228Z,18.60
2019-04-20T16:05:14.482Z,18.70
2019-04-20T16:08:00.188Z,18.80
2019-04-20T16:10:28.410Z,18.60
2019-04-20T16:13:11.843Z,18.40
2019-04-20T16:15:27.550Z,18.30
2019-04-20T16:17:56.861Z,18.30
2019-04-20T16:20:27.557Z,18.20
2019-04-20T16:22:56.533Z,18.20
2019-04-20T16:25:32.601Z,18.20
2019-04-20T16:28:01.610Z,18.20
2019-04-20T16:30:31.814Z,18.10
2019-04-20T16:33:00.922Z,18.00
2019-04-20T16:35:32.549Z,17.90
2019-04-20T16:38:02.547Z,17.90
2019-04-20T16:40:31.766Z,17.90
2019-04-20T16:43:00.578Z,17.90
2019-04-20T16:45:29.601Z,17.90
2019-04-20T16:48:01.526Z,17.90
2019-04-20T16:50:30.989Z,17.80
2019-04-20T16:53:01.146Z,17.80
2019-04-20T16:55:30.541Z,17.70
2019-04-20T16:57:59.640Z,17.70
2019-04-20T17:00:29.450Z,17.70
2019-04-20T17:02:58.584Z,17.60
2019-04-20T17:05:27.579Z,17.60
2019-04-20T17:07:58.063Z,17.50
2019-04-20T17:10:27.076Z,17.40
2019-04-20T17:12:55.954Z,17.30
2019-04-20T17:15:25.561Z,17.20
2019-04-20T17:17:56.709Z,17.10
2019-04-20T17:20:27.064Z,17.00
2019-04-20T17:22:56.201Z,17.00
2019-04-20T17:25:25.989Z,17.00
2019-04-20T17:28:06.889Z,16.90
2019-04-20T17:30:55.063Z,16.90
2019-04-20T17:33:30.487Z,16.80
2019-04-20T17:36:08.786Z,16.80
2019-04-20T17:38:36.457Z,16.70
2019-04-20T17:41:18.165Z,16.50
2019-04-20T17:43:42.419Z,16.30
2019-04-20T17:46:10.091Z,16.20
2019-04-20T17:48:43.211Z,16.10
2019-04-20T17:51:25.398Z,15.90
2019-04-20T17:53:52.733Z,15.80
2019-04-20T17:56:17.328Z,15.60
2019-04-20T17:58:46.294Z,15.30
2019-04-20T18:01:32.981Z,15.20
2019-04-20T18:04:39.781Z,15.00
2019-04-20T18:06:47.854Z,14.90
2019-04-20T18:09:34.931Z,14.80
2019-04-20T18:11:46.657Z,14.60
2019-04-20T18:14:28.520Z,14.50
2019-04-20T18:16:56.211Z,14.40
2019-04-20T18:19:19.028Z,14.30
2019-04-20T18:21:51.678Z,14.10
2019-04-20T18:24:46.404Z,14.00
2019-04-20T18:27:07.233Z,13.90
2019-04-20T18:29:42.087Z,13.70
2019-04-20T18:32:03.186Z,13.60
2019-04-20T18:34:36.550Z,13.50
2019-04-20T18:37:12.033Z,13.40
2019-04-20T18:39:43.783Z,13.30
2019-04-20T18:42:12.911Z,13.30
2019-04-20T18:44:56.843Z,13.20
2019-04-20T18:47:29.061Z,13.10
2019-04-20T18:49:52.772Z,13.00
2019-04-20T18:52:11.567Z,12.90
2019-04-20T18:54:44.363Z,12.90
2019-04-20T18:57:14.314Z,12.80
2019-04-20T18:59:47.858Z,12.80
2019-04-20T19:02:18.535Z,12.70
2019-04-20T19:04:43.902Z,12.60
2019-04-20T19:07:14.169Z,12.60
2019-04-20T19:09:43.171Z,12.50
2019-04-20T19:12:14.567Z,12.50
2019-04-20T19:14:51.704Z,12.40
2019-04-20T19:17:54.983Z,12.30
2019-04-20T19:20:26.768Z,12.20
2019-04-20T19:22:55.678Z,12.00
2019-04-20T19:25:30.824Z,11.80
2019-04-20T19:27:57.825Z,11.60
2019-04-20T19:30:35.368Z,11.50
2019-04-20T19:33:14.502Z,11.40
2019-04-20T19:35:40.673Z,11.30
2019-04-20T19:38:06.669Z,11.20
2019-04-20T19:40:43.251Z,11.10
2019-04-20T19:43:12.882Z,11.00
2019-04-20T19:45:56.685Z,11.00
2019-04-20T19:48:17.440Z,10.90
2019-04-20T19:50:57.655Z,10.80
2019-04-20T19:53:26.063Z,10.60
2019-04-20T19:55:47.750Z,10.50
2019-04-20T19:58:19.160Z,10.40
2019-04-20T20:00:55.350Z,10.40
2019-04-20T20:03:23.744Z,10.40
2019-04-20T20:05:54.735Z,10.40
2019-04-20T20:08:26.051Z,10.30
2019-04-20T20:10:56.381Z,10.30
2019-04-20T20:13:33.239Z,10.30
2019-04-20T20:16:02.486Z,10.20
2019-04-20T20:18:39.190Z,10.10
2019-04-20T20:21:13.429Z,10.00
2019-04-20T20:23:30.066Z,9.90
2019-04-20T20:26:02.420Z,9.80
2019-04-20T20:28:38.303Z,9.80
2019-04-20T20:31:09.698Z,9.90
2019-04-20T20:33:46.673Z,9.90
2019-04-20T20:36:10.787Z,9.90
2019-04-20T20:38:39.025Z,9.80
2019-04-20T20:41:14.112Z,9.60
2019-04-20T20:43:47.483Z,9.50
2019-04-20T20:49:58.510Z,9.30
2019-04-20T20:52:22.037Z,9.20
2019-04-20T20:54:45.914Z,9.10
2019-04-20T20:57:12.767Z,9.00
2019-04-20T20:59:45.264Z,9.00
2019-04-20T21:02:14.568Z,8.90
2019-04-20T21:04:37.644Z,8.80
2019-04-20T21:07:06.719Z,8.70
2019-04-20T21:09:35.727Z,8.70
2019-04-20T21:12:09.148Z,8.60
2019-04-20T21:14:38.635Z,8.40
2019-04-20T21:17:15.177Z,8.30
2019-04-20T21:19:55.013Z,8.30
2019-04-20T21:22:13.381Z,8.20
2019-04-20T21:24:42.150Z,8.20
2019-04-20T21:27:16.512Z,8.20
2019-04-20T21:29:54.233Z,8.30
2019-04-20T21:32:23.402Z,8.30
2019-04-20T21:35:00.589Z,8.20
2019-04-20T21:37:28.936Z,8.10
2019-04-20T21:40:14.618Z,8.00
2019-04-20T21:42:44.314Z,8.00
2019-04-20T21:45:16.762Z,8.00
2019-04-20T21:47:42.704Z,7.90
2019-04-20T21:50:31.172Z,7.90
2019-04-20T21:52:46.499Z,7.90
2019-04-20T21:55:16.224Z,7.70
2019-04-20T21:57:59.042Z,7.60
2019-04-20T22:00:47.703Z,7.60
2019-04-20T22:03:22.329Z,7.70
2019-04-20T22:05:50.532Z,7.80
2019-04-20T22:08:19.779Z,7.80
2019-04-20T22:10:50.107Z,7.70
2019-04-20T22:13:25.505Z,7.60
2019-04-20T22:15:56.572Z,7.50
2019-04-20T22:18:23.412Z,7.40
2019-04-20T22:21:04.704Z,7.30
2019-04-20T22:23:36.602Z,7.20
2019-04-20T22:26:03.955Z,7.20
2019-04-20T22:28:22.464Z,7.20
2019-04-20T22:30:51.315Z,7.20
2019-04-20T22:33:25.007Z,7.30
2019-04-20T22:35:57.663Z,7.40
2019-04-20T22:38:30.921Z,7.40
2019-04-20T22:41:06.606Z,7.40
2019-04-20T22:43:33.700Z,7.20
2019-04-20T22:46:01.236Z,7.10
2019-04-20T22:48:31.346Z,7.00
2019-04-20T22:51:25.904Z,6.90
2019-04-20T22:53:45.104Z,6.80
2019-04-20T22:56:19.732Z,6.70
2019-04-20T22:58:47.949Z,6.60
2019-04-20T23:01:09.585Z,6.60
2019-04-20T23:03:32.892Z,6.60
2019-04-20T23:06:02.852Z,6.60
2019-04-20T23:08:32.814Z,6.60
2019-04-20T23:11:04.489Z,6.60
2019-04-20T23:13:36.719Z,6.40
2019-04-20T23:16:05.791Z,6.20
2019-04-20T23:18:36.109Z,6.20
2019-04-20T23:21:08.283Z,6.30
2019-04-20T23:23:35.657Z,6.30
2019-04-20T23:26:05.198Z,6.20
2019-04-20T23:28:35.327Z,6.20
2019-04-20T23:31:09.819Z,6.20
2019-04-20T23:33:36.035Z,6.20
2019-04-20T23:36:06.758Z,6.20
2019-04-20T23:38:36.677Z,6.10
2019-04-20T23:41:05.953Z,6.20
2019-04-20T23:43:38.473Z,6.20
2019-04-20T23:46:29.283Z,6.10
2019-04-20T23:49:20.963Z,6.00
2019-04-20T23:52:08.565Z,5.90
2019-04-20T23:54:22.107Z,5.90
2019-04-20T23:56:45.853Z,5.80
2019-04-20T23:59:18.529Z,5.70
